Alexander Mills, North Carolina
Current Conditions -  °F | °C
As of 11:15 PM on Sunday 25 Jan 2015 (Local Time) from KFQD Reporting Station
Clear Clear  
Wind Chill:   Ceiling: Unl
Heat Index:   Visibility: 10mi
Dew Point: -1°   Wind: 6mph
Humidity: 53%   Direction: 180°S
Pressure: 29.74"   Gusts: NA
Location:  35.27°N, 81.8676°W
Report Text: KFQD 260415Z AUTO 18005KT 10SM CLR 08/M01 A2974 RMK AO2 T00791011
Loading
Personal Weather Stations






























Interactive Weather Map New forecast layout! Learn more

10-Day Weather Forecast

Advertisements
Track Severe Weather on mobile